アンマン の空港の天気 - METARとTAF

クィーンアリア国際空港 ( OJAI / AMM ) - ヨルダン アンマン
飛行場実況気象(Metar)
観測時間07/15 15:00 EEST (07/15 12:00 UTC)
風向・風速西北西 5m/s
視程6000m
天気現象
なし
気温37℃
湿度27%
気圧1011hPa
METAROJAI 151200Z 30010KT 6000 NSC 37/15 Q1011 NOSIG
過去の天気等 Google飛行場航空写真 Wunderground天気予報

過去48時間のMETAR

飛行場予報(TAF)
発表時間: 7/15 13:27 EEST (7/15 10:27 UTC)
予報対象時間: 15日15時 EEST ~ 16日21時 EEST
風向・風速西 5m/s
視程6000m
なし
16日3時 EEST ~ 16日9時 EEST に一時的に
風向・風速不定 1m/s
TAF COR OJAI 151027Z 1512/1618 28010KT 6000 NSC
TEMPO 1600/1606 VRB01KT